createdAt,value
2022-10-24T00:00:24.494Z,99.90
2022-10-24T00:07:53.095Z,99.90
2022-10-24T00:11:35.555Z,99.90
2022-10-24T00:15:17.515Z,99.90
2022-10-24T00:18:59.314Z,99.90
2022-10-24T00:22:41.320Z,99.90
2022-10-24T00:26:23.298Z,99.90
2022-10-24T00:30:06.474Z,99.90
2022-10-24T00:33:48.742Z,99.90
2022-10-24T00:37:30.688Z,99.90
2022-10-24T00:41:18.427Z,99.90
2022-10-24T00:45:22.423Z,99.90
2022-10-24T00:49:04.316Z,99.90
2022-10-24T00:52:47.796Z,99.90
2022-10-24T00:56:34.486Z,99.90
2022-10-24T01:00:21.258Z,99.90
2022-10-24T01:04:03.827Z,99.90
2022-10-24T01:08:09.542Z,99.90
2022-10-24T01:12:04.737Z,99.90
2022-10-24T01:16:05.703Z,99.90
2022-10-24T01:19:50.543Z,99.90
2022-10-24T01:23:59.363Z,99.90
2022-10-24T01:28:19.271Z,99.90
2022-10-24T01:32:32.540Z,99.90
2022-10-24T01:36:21.084Z,99.90
2022-10-24T01:40:25.539Z,99.90
2022-10-24T01:44:13.747Z,99.90
2022-10-24T01:47:58.320Z,99.90
2022-10-24T01:51:41.614Z,99.90
2022-10-24T01:55:23.988Z,99.90
2022-10-24T01:59:30.940Z,99.90
2022-10-24T02:03:37.062Z,99.90
2022-10-24T02:07:21.639Z,99.90
2022-10-24T02:11:06.538Z,99.90
2022-10-24T02:14:53.508Z,99.90
2022-10-24T02:18:35.357Z,99.90
2022-10-24T02:22:38.099Z,99.90
2022-10-24T02:26:31.541Z,99.90
2022-10-24T02:30:19.069Z,99.90
2022-10-24T02:34:03.235Z,99.90
2022-10-24T02:37:51.840Z,99.90
2022-10-24T02:41:37.505Z,99.90
2022-10-24T02:45:20.830Z,99.90
2022-10-24T02:49:03.851Z,99.90
2022-10-24T02:52:46.655Z,99.90
2022-10-24T02:56:29.612Z,99.90
2022-10-24T03:00:12.216Z,99.90
2022-10-24T03:03:54.071Z,99.90
2022-10-24T03:07:36.038Z,99.90
2022-10-24T03:11:17.995Z,99.90
2022-10-24T03:14:59.805Z,99.90
2022-10-24T03:18:41.655Z,99.90
2022-10-24T03:22:26.384Z,99.90
2022-10-24T03:26:10.382Z,99.90
2022-10-24T03:29:52.172Z,99.90
2022-10-24T03:33:34.093Z,99.90
2022-10-24T03:37:15.934Z,99.90
2022-10-24T03:40:57.980Z,99.90
2022-10-24T03:44:40.094Z,99.90
2022-10-24T03:48:21.883Z,99.90
2022-10-24T03:52:04.012Z,99.90
2022-10-24T03:55:45.858Z,99.90
2022-10-24T03:59:27.791Z,99.90
2022-10-24T04:03:10.838Z,99.90
2022-10-24T04:06:52.815Z,99.90
2022-10-24T04:10:34.682Z,99.90
2022-10-24T04:14:16.529Z,99.90
2022-10-24T04:17:58.354Z,99.90
2022-10-24T04:21:40.251Z,99.90
2022-10-24T04:25:22.134Z,99.90
2022-10-24T04:29:04.036Z,99.90
2022-10-24T04:32:46.143Z,99.90
2022-10-24T04:36:28.411Z,99.90
2022-10-24T04:40:10.674Z,99.90
2022-10-24T04:43:53.555Z,99.90
2022-10-24T04:47:35.530Z,99.90
2022-10-24T04:51:20.111Z,99.90
2022-10-24T04:55:04.622Z,99.90
2022-10-24T04:58:46.541Z,99.90
2022-10-24T05:02:28.474Z,99.90
2022-10-24T05:06:10.450Z,99.90
2022-10-24T05:09:52.226Z,99.90
2022-10-24T05:13:36.619Z,99.90
2022-10-24T05:17:18.749Z,99.90
2022-10-24T05:21:01.126Z,99.90
2022-10-24T05:24:42.958Z,99.90
2022-10-24T05:28:24.838Z,99.90
2022-10-24T05:32:06.665Z,99.90
2022-10-24T05:35:49.468Z,99.90
2022-10-24T05:39:31.286Z,99.90
2022-10-24T05:43:13.507Z,99.90
2022-10-24T05:46:55.498Z,99.90
2022-10-24T05:50:37.317Z,99.90
2022-10-24T05:54:19.201Z,99.90
2022-10-24T05:58:01.251Z,99.90
2022-10-24T06:01:43.371Z,99.90
2022-10-24T06:05:25.408Z,99.90
2022-10-24T06:09:07.431Z,99.90
2022-10-24T06:12:49.255Z,99.90
2022-10-24T06:16:31.154Z,99.90
2022-10-24T06:20:12.959Z,99.90
2022-10-24T06:23:54.826Z,99.90
2022-10-24T06:27:36.735Z,99.90
2022-10-24T06:31:20.455Z,99.90
2022-10-24T06:35:02.331Z,99.90
2022-10-24T06:38:44.163Z,99.90
2022-10-24T06:42:25.994Z,99.90
2022-10-24T06:46:09.528Z,99.90
2022-10-24T06:49:51.347Z,99.90
2022-10-24T06:53:33.412Z,99.90
2022-10-24T06:57:15.335Z,99.90
2022-10-24T07:00:57.150Z,99.90
2022-10-24T07:04:39.194Z,99.90
2022-10-24T07:08:21.080Z,99.90
2022-10-24T07:12:02.942Z,99.90
2022-10-24T07:15:44.780Z,99.90
2022-10-24T07:19:26.682Z,99.90
2022-10-24T07:23:08.508Z,99.90
2022-10-24T07:26:50.677Z,99.90
2022-10-24T07:30:32.680Z,99.90
2022-10-24T07:34:15.191Z,99.90
2022-10-24T07:37:57.096Z,99.90
2022-10-24T07:41:41.747Z,99.90
2022-10-24T07:45:24.939Z,99.90
2022-10-24T07:49:07.943Z,99.90
2022-10-24T07:52:49.750Z,99.90
2022-10-24T07:56:31.600Z,99.90
2022-10-24T08:00:14.011Z,99.90
2022-10-24T08:03:56.705Z,99.90
2022-10-24T08:07:38.803Z,99.90
2022-10-24T08:11:24.075Z,99.90
2022-10-24T08:15:06.471Z,99.90
2022-10-24T08:18:49.307Z,99.90
2022-10-24T08:22:31.366Z,99.90
2022-10-24T08:26:15.799Z,99.90
2022-10-24T08:29:57.661Z,99.90
2022-10-24T08:33:39.503Z,99.90
2022-10-24T08:37:21.312Z,99.90
2022-10-24T08:41:05.635Z,99.90
2022-10-24T08:44:47.488Z,99.90
2022-10-24T08:48:34.180Z,99.90
2022-10-24T08:52:45.175Z,99.90
2022-10-24T08:56:32.023Z,99.90
2022-10-24T09:00:38.380Z,99.90
2022-10-24T09:04:23.353Z,99.90
2022-10-24T09:08:24.526Z,99.90
2022-10-24T09:12:13.584Z,99.90
2022-10-24T09:15:56.002Z,99.90
2022-10-24T09:19:38.624Z,99.90
2022-10-24T09:23:23.417Z,99.90
2022-10-24T09:27:12.193Z,99.90
2022-10-24T09:30:54.314Z,99.40
2022-10-24T09:34:36.122Z,98.40
2022-10-24T09:38:26.584Z,98.30
2022-10-24T09:42:22.067Z,98.00
2022-10-24T09:46:21.641Z,95.20
2022-10-24T09:50:03.702Z,93.00
2022-10-24T09:54:08.210Z,89.90
2022-10-24T09:57:58.138Z,92.20
2022-10-24T10:01:41.344Z,90.70
2022-10-24T10:05:23.238Z,90.80
2022-10-24T10:09:13.718Z,90.90
2022-10-24T10:13:07.302Z,92.00
2022-10-24T10:17:01.290Z,92.50
2022-10-24T10:20:43.303Z,92.50
2022-10-24T10:24:32.691Z,92.00
2022-10-24T10:28:23.195Z,91.90
2022-10-24T10:32:21.290Z,91.10
2022-10-24T10:36:13.500Z,90.20
2022-10-24T10:40:21.883Z,89.60
2022-10-24T10:44:34.745Z,91.10
2022-10-24T10:48:19.428Z,90.70
2022-10-24T10:52:16.554Z,89.80
2022-10-24T10:56:35.851Z,88.10
2022-10-24T11:00:23.483Z,87.70
2022-10-24T11:04:52.224Z,77.10
2022-10-24T11:09:03.112Z,78.90
2022-10-24T11:12:46.387Z,80.80
2022-10-24T11:16:29.547Z,74.60
2022-10-24T11:20:47.242Z,68.10
2022-10-24T11:24:40.623Z,75.00
2022-10-24T11:28:28.483Z,66.90
2022-10-24T11:32:38.162Z,63.90
2022-10-24T11:36:45.633Z,72.30
2022-10-24T11:40:30.210Z,71.20
2022-10-24T11:44:34.556Z,64.10
2022-10-24T11:48:37.979Z,69.00
2022-10-24T11:52:27.559Z,70.70
2022-10-24T11:56:46.782Z,63.80
2022-10-24T12:00:50.654Z,64.80
2022-10-24T12:04:38.526Z,58.30
2022-10-24T12:08:44.813Z,61.80
2022-10-24T12:12:47.840Z,61.40
2022-10-24T12:17:08.004Z,60.80
2022-10-24T12:20:55.451Z,70.00
2022-10-24T12:24:41.039Z,64.30
2022-10-24T12:28:26.137Z,65.10
2022-10-24T12:32:30.726Z,68.40
2022-10-24T12:36:13.103Z,73.40
2022-10-24T12:39:58.557Z,71.30
2022-10-24T12:43:43.440Z,74.20
2022-10-24T12:47:36.502Z,77.40
2022-10-24T12:51:36.314Z,79.40
2022-10-24T12:55:39.394Z,78.70
2022-10-24T12:59:52.601Z,73.90
2022-10-24T13:03:54.932Z,76.20
2022-10-24T13:07:59.846Z,74.40
2022-10-24T13:12:23.827Z,77.30
2022-10-24T13:16:17.663Z,79.20
2022-10-24T13:20:06.405Z,78.00
2022-10-24T13:23:49.713Z,71.10
2022-10-24T13:27:32.180Z,65.50
2022-10-24T13:31:16.765Z,63.00
2022-10-24T13:34:59.910Z,61.30
2022-10-24T13:38:46.646Z,61.20
2022-10-24T13:42:39.813Z,64.80
2022-10-24T13:46:45.230Z,69.40
2022-10-24T13:50:32.067Z,73.30
2022-10-24T13:54:26.967Z,68.40
2022-10-24T13:58:12.202Z,70.00
2022-10-24T14:01:54.654Z,62.80
2022-10-24T14:05:44.577Z,61.60
2022-10-24T14:09:26.422Z,59.30
2022-10-24T14:13:17.481Z,58.50
2022-10-24T14:17:27.063Z,64.20
2022-10-24T14:21:21.124Z,71.60
2022-10-24T14:25:03.318Z,74.00
2022-10-24T14:28:58.805Z,74.90
2022-10-24T14:32:41.742Z,75.70
2022-10-24T14:36:27.669Z,77.20
2022-10-24T14:40:17.566Z,78.80
2022-10-24T14:44:00.482Z,80.70
2022-10-24T14:47:52.411Z,77.60
2022-10-24T14:51:39.318Z,75.00
2022-10-24T14:55:21.849Z,72.50
2022-10-24T14:59:06.825Z,71.30
2022-10-24T15:02:50.459Z,75.10
2022-10-24T15:06:43.413Z,74.70
2022-10-24T15:10:35.870Z,77.20
2022-10-24T15:14:35.875Z,77.50
2022-10-24T15:18:41.180Z,80.70
2022-10-24T15:22:35.224Z,82.00
2022-10-24T15:26:32.927Z,81.90
2022-10-24T15:30:21.950Z,80.80
2022-10-24T15:34:04.612Z,82.20
2022-10-24T15:38:17.465Z,84.40
2022-10-24T15:41:59.303Z,86.50
2022-10-24T15:45:41.651Z,87.30
2022-10-24T15:49:23.546Z,87.40
2022-10-24T15:53:05.473Z,88.50
2022-10-24T15:56:47.654Z,89.30
2022-10-24T16:00:29.794Z,89.90
2022-10-24T16:04:11.716Z,90.50
2022-10-24T16:07:53.835Z,90.60
2022-10-24T16:11:36.774Z,90.90
2022-10-24T16:15:26.829Z,91.40
2022-10-24T16:19:09.689Z,91.90
2022-10-24T16:22:51.974Z,91.80
2022-10-24T16:26:34.753Z,91.90
2022-10-24T16:30:21.858Z,92.30
2022-10-24T16:34:03.717Z,92.60
2022-10-24T16:37:45.662Z,93.20
2022-10-24T16:41:27.724Z,93.20
2022-10-24T16:45:10.621Z,93.50
2022-10-24T16:48:52.545Z,93.70
2022-10-24T16:52:34.695Z,93.90
2022-10-24T16:56:16.975Z,94.00
2022-10-24T16:59:58.776Z,94.00
2022-10-24T17:03:40.898Z,94.10
2022-10-24T17:07:22.733Z,94.40
2022-10-24T17:11:09.553Z,94.40
2022-10-24T17:14:58.203Z,94.60
2022-10-24T17:18:39.995Z,94.90
2022-10-24T17:22:22.474Z,95.00
2022-10-24T17:26:04.485Z,95.10
2022-10-24T17:29:46.386Z,95.30
2022-10-24T17:33:28.330Z,95.30
2022-10-24T17:37:10.122Z,95.30
2022-10-24T17:40:54.067Z,95.50
2022-10-24T17:44:37.858Z,95.80
2022-10-24T17:48:20.087Z,95.90
2022-10-24T17:52:01.935Z,95.90
2022-10-24T17:55:46.743Z,96.00
2022-10-24T17:59:29.150Z,96.20
2022-10-24T18:03:11.034Z,96.20
2022-10-24T18:06:52.883Z,96.30
2022-10-24T18:10:37.013Z,96.30
2022-10-24T18:14:18.830Z,96.40
2022-10-24T18:18:00.679Z,96.40
2022-10-24T18:21:42.473Z,96.40
2022-10-24T18:25:24.367Z,96.70
2022-10-24T18:29:06.216Z,96.80
2022-10-24T18:32:48.305Z,97.00
2022-10-24T18:36:31.788Z,97.00
2022-10-24T18:40:14.056Z,97.40
2022-10-24T18:43:57.984Z,97.50
2022-10-24T18:47:40.425Z,97.60
2022-10-24T18:52:11.661Z,97.90
2022-10-24T18:55:54.430Z,98.30
2022-10-24T18:59:36.423Z,98.10
2022-10-24T19:03:25.190Z,98.20
2022-10-24T19:07:09.334Z,98.40
2022-10-24T19:10:53.446Z,98.30
2022-10-24T19:14:35.575Z,98.50
2022-10-24T19:18:18.266Z,98.40
2022-10-24T19:22:00.951Z,98.60
2022-10-24T19:25:43.009Z,98.50
2022-10-24T19:29:24.832Z,98.40
2022-10-24T19:33:06.787Z,98.50
2022-10-24T19:36:48.607Z,98.50
2022-10-24T19:40:30.514Z,98.50
2022-10-24T19:44:12.379Z,98.60
2022-10-24T19:47:57.451Z,98.70
2022-10-24T19:51:39.267Z,98.70
2022-10-24T19:55:22.691Z,98.70
2022-10-24T19:59:04.615Z,98.70
2022-10-24T20:02:46.606Z,98.90
2022-10-24T20:06:28.859Z,99.00
2022-10-24T20:10:10.735Z,99.10
2022-10-24T20:13:52.565Z,99.10
2022-10-24T20:17:35.768Z,99.10
2022-10-24T20:21:18.776Z,99.10
2022-10-24T20:25:00.652Z,99.30
2022-10-24T20:28:44.972Z,99.40
2022-10-24T20:32:26.783Z,99.50
2022-10-24T20:36:08.943Z,99.40
2022-10-24T20:39:50.769Z,99.30
2022-10-24T20:43:32.595Z,99.40
2022-10-24T20:47:14.487Z,99.70
2022-10-24T20:51:13.828Z,99.90
2022-10-24T20:54:55.645Z,99.90
2022-10-24T20:58:39.362Z,99.90
2022-10-24T21:02:21.280Z,99.90
2022-10-24T21:06:04.199Z,99.90
2022-10-24T21:09:46.035Z,99.90
2022-10-24T21:13:27.822Z,99.90
2022-10-24T21:17:09.796Z,99.90
2022-10-24T21:20:51.610Z,99.90
2022-10-24T21:24:33.554Z,99.90
2022-10-24T21:28:15.506Z,99.90
2022-10-24T21:31:57.352Z,99.90
2022-10-24T21:35:39.668Z,99.90
2022-10-24T21:39:21.886Z,99.90
2022-10-24T21:43:03.962Z,99.90
2022-10-24T21:46:45.755Z,99.90
2022-10-24T21:50:27.532Z,99.90
2022-10-24T21:54:24.098Z,99.90
2022-10-24T21:58:05.904Z,99.90
2022-10-24T22:01:48.992Z,99.90
2022-10-24T22:05:30.893Z,99.90
2022-10-24T22:09:17.030Z,99.90
2022-10-24T22:12:58.873Z,99.90
2022-10-24T22:16:41.595Z,99.90
2022-10-24T22:20:23.402Z,99.90
2022-10-24T22:24:10.953Z,99.90
2022-10-24T22:27:52.742Z,99.90
2022-10-24T22:31:35.111Z,99.90
2022-10-24T22:35:17.403Z,99.90
2022-10-24T22:39:00.051Z,99.90
2022-10-24T22:42:42.072Z,99.90
2022-10-24T22:46:29.979Z,99.90
2022-10-24T22:50:54.888Z,99.90
2022-10-24T22:54:37.245Z,99.90
2022-10-24T22:58:19.330Z,99.90
2022-10-24T23:02:31.945Z,99.90
2022-10-24T23:06:40.027Z,99.90
2022-10-24T23:10:23.811Z,99.90
2022-10-24T23:14:06.102Z,99.90
2022-10-24T23:17:49.360Z,99.90
2022-10-24T23:21:39.480Z,99.90
2022-10-24T23:25:21.515Z,99.90
2022-10-24T23:29:33.297Z,99.90
2022-10-24T23:33:23.391Z,99.90
2022-10-24T23:37:05.648Z,99.90
2022-10-24T23:40:47.784Z,99.90
2022-10-24T23:44:29.940Z,99.90
2022-10-24T23:48:33.269Z,99.90
2022-10-24T23:52:41.743Z,99.90
2022-10-24T23:56:26.070Z,99.90
